Crystal Falls, MI

6:10 AM CDT on August 26, 2016 (GMT -0500)
Bates Tower | | Change Station

Elev 1765 ft 46.10 °N, 88.54 °W | Updated 9 minutes ago

Clear
Clear
52.9 °F
Feels Like 52.9 °F
N
1.0
Wind Variable Wind from West
Gusts 3.0 mph

Today
High -- | Low -- °F
--% Chance of Precip.
Yesterday
High -- | Low -- °F
Precip. -- in
Pressure 30.08 in
Visibility 10.0 miles
Clouds Clear
Dew Point 52 °F
Humidity 96%
Rainfall 0.00 in
Snow Depth Not available.
6:07 AM 7:42 PM
Waning Crescent, 35% visible
METAR KIMT 261054Z AUTO 00000KT 10SM CLR 12/09 A3008 RMK AO2 SLP184 T01170094
Pressure 30.08 in
Visibility 10.0 miles
Clouds Clear
Dew Point 52 °F
Humidity 96%
Rainfall 0.00 in
Snow Depth Not available.
6:07 AM 7:42 PM
Waning Crescent, 35% visible
METAR KIMT 261054Z AUTO 00000KT 10SM CLR 12/09 A3008 RMK AO2 SLP184 T01170094

10-Day Weather Forecast

Almanac

Astronomy

Aug. 26, 2016 Rise Set
Actual Time
Civil Twilight
Nautical Twilight
Astronomical Twilight
Moon
Length of Visible Light
Length of Day
Tomorrow will be .
, % of the Moon is Illuminated

Today's Extremes

State Highs State Lows

Community

WunderPhotos

Upload Photos

1,935,069 photos uploaded!

WunderBlog® & News

Nearby

Air Quality

  Air Quality AQ Index Pollutant
Not available.

Snow Depth

Station Depth Elevation

Earthquake Activity

City Distance Mag. Time & Date
Minimum magnitude displayed is 2.5.

Coastal Water Temperatures

Place Temperature

Stations

Nearby Weather Stations

Station Location Temp. Windchill Dew Point Humidity Wind Precip. Elev Updated Type
                   

Watches & Warnings

There are currently no watches in effect.